createdAt,value
2018-03-25T00:01:42.107Z,3.00
2018-03-25T00:04:13.328Z,3.10
2018-03-25T00:06:44.582Z,3.20
2018-03-25T00:09:15.814Z,3.20
2018-03-25T00:11:47.125Z,3.20
2018-03-25T00:14:18.401Z,3.20
2018-03-25T00:16:49.751Z,3.10
2018-03-25T00:19:21.756Z,2.90
2018-03-25T00:21:53.020Z,2.90
2018-03-25T00:24:24.992Z,2.90
2018-03-25T00:26:56.209Z,2.90
2018-03-25T00:29:27.520Z,3.00
2018-03-25T00:31:58.817Z,2.80
2018-03-25T00:34:30.940Z,3.00
2018-03-25T00:37:02.242Z,2.90
2018-03-25T00:39:33.423Z,3.00
2018-03-25T00:42:04.862Z,2.90
2018-03-25T00:44:36.076Z,2.90
2018-03-25T00:47:07.300Z,2.90
2018-03-25T00:49:38.576Z,2.90
2018-03-25T00:52:09.822Z,2.90
2018-03-25T00:54:41.298Z,3.00
2018-03-25T00:57:12.560Z,2.90
2018-03-25T00:59:44.882Z,2.80
2018-03-25T01:02:16.069Z,2.80
2018-03-25T01:04:47.352Z,2.90
2018-03-25T01:07:18.562Z,2.90
2018-03-25T01:09:50.533Z,2.90
2018-03-25T01:12:22.524Z,2.90
2018-03-25T01:14:53.832Z,2.90
2018-03-25T01:17:25.029Z,2.90
2018-03-25T01:19:56.254Z,2.90
2018-03-25T01:22:27.531Z,3.00
2018-03-25T01:24:58.724Z,3.00
2018-03-25T01:27:29.966Z,2.80
2018-03-25T01:30:01.176Z,2.90
2018-03-25T01:32:32.702Z,3.00
2018-03-25T01:35:04.035Z,3.10
2018-03-25T01:37:35.244Z,3.20
2018-03-25T01:40:06.488Z,3.40
2018-03-25T01:42:38.469Z,3.30
2018-03-25T01:45:09.677Z,3.30
2018-03-25T01:47:40.894Z,3.30
2018-03-25T01:50:12.108Z,3.30
2018-03-25T01:52:43.310Z,3.20
2018-03-25T01:55:14.799Z,3.20
2018-03-25T01:57:46.726Z,3.20
2018-03-25T02:00:17.986Z,3.20
2018-03-25T02:02:49.935Z,3.10
2018-03-25T02:05:21.332Z,3.00
2018-03-25T02:07:52.548Z,3.10
2018-03-25T02:10:24.735Z,3.10
2018-03-25T02:12:55.963Z,3.10
2018-03-25T02:15:27.585Z,3.10
2018-03-25T02:17:58.974Z,3.10
2018-03-25T02:20:30.187Z,3.10
2018-03-25T02:23:01.417Z,3.10
2018-03-25T02:25:32.705Z,3.20
2018-03-25T02:28:03.972Z,3.20
2018-03-25T02:30:35.251Z,3.10
2018-03-25T02:33:06.564Z,3.20
2018-03-25T02:35:37.818Z,3.10
2018-03-25T02:38:09.166Z,3.10
2018-03-25T02:40:40.399Z,3.00
2018-03-25T02:43:11.645Z,2.90
2018-03-25T02:45:42.901Z,2.80
2018-03-25T02:48:14.096Z,2.80
2018-03-25T02:50:46.156Z,2.80
2018-03-25T02:53:17.352Z,2.70
2018-03-25T02:55:48.660Z,2.70
2018-03-25T02:58:19.927Z,2.80
2018-03-25T03:00:51.148Z,2.80
2018-03-25T03:03:22.417Z,2.90
2018-03-25T03:05:53.641Z,2.80
2018-03-25T03:08:24.873Z,2.90
2018-03-25T03:10:56.841Z,2.90
2018-03-25T03:13:28.798Z,2.90
2018-03-25T03:16:00.844Z,2.90
2018-03-25T03:18:32.068Z,2.90
2018-03-25T03:21:03.393Z,2.90
2018-03-25T03:23:34.691Z,2.90
2018-03-25T03:26:06.702Z,2.90
2018-03-25T03:28:37.944Z,2.90
2018-03-25T03:31:09.169Z,2.90
2018-03-25T03:33:40.455Z,2.80
2018-03-25T03:36:11.861Z,2.70
2018-03-25T03:38:43.153Z,2.70
2018-03-25T03:41:14.403Z,2.70
2018-03-25T03:43:45.640Z,2.70
2018-03-25T03:46:17.644Z,2.70
2018-03-25T03:48:49.606Z,2.60
2018-03-25T03:51:20.835Z,2.60
2018-03-25T03:53:52.771Z,2.60
2018-03-25T03:56:24.837Z,2.60
2018-03-25T03:58:56.070Z,2.50
2018-03-25T04:01:27.293Z,2.60
2018-03-25T04:03:58.739Z,2.60
2018-03-25T04:06:29.940Z,2.60
2018-03-25T04:09:02.003Z,2.60
2018-03-25T04:11:33.240Z,2.50
2018-03-25T04:14:04.516Z,2.50
2018-03-25T04:16:35.784Z,2.40
2018-03-25T04:19:07.009Z,2.40
2018-03-25T04:21:38.232Z,2.40
2018-03-25T04:24:09.466Z,2.40
2018-03-25T04:26:41.702Z,2.20
2018-03-25T04:29:12.911Z,2.20
2018-03-25T04:31:44.151Z,2.30
2018-03-25T04:34:15.846Z,2.30
2018-03-25T04:36:47.389Z,2.20
2018-03-25T04:39:18.643Z,2.20
2018-03-25T04:41:49.894Z,2.20
2018-03-25T04:44:21.083Z,2.10
2018-03-25T04:46:52.668Z,2.20
2018-03-25T04:49:23.927Z,2.20
2018-03-25T04:51:55.143Z,2.10
2018-03-25T04:54:26.353Z,2.20
2018-03-25T04:56:58.390Z,2.30
2018-03-25T04:59:29.680Z,2.30
2018-03-25T05:02:00.916Z,2.30
2018-03-25T05:04:32.157Z,2.30
2018-03-25T05:07:03.420Z,2.30
2018-03-25T05:09:34.723Z,2.20
2018-03-25T05:12:05.939Z,2.30
2018-03-25T05:14:37.335Z,2.20
2018-03-25T05:17:08.631Z,2.20
2018-03-25T05:19:39.843Z,2.30
2018-03-25T05:22:11.096Z,2.30
2018-03-25T05:24:42.413Z,2.30
2018-03-25T05:27:14.345Z,2.30
2018-03-25T05:29:45.568Z,2.30
2018-03-25T05:32:16.884Z,2.20
2018-03-25T05:34:48.396Z,2.20
2018-03-25T05:37:19.776Z,2.20
2018-03-25T05:39:51.812Z,2.20
2018-03-25T05:42:23.015Z,2.20
2018-03-25T05:44:54.342Z,2.30
2018-03-25T05:47:25.598Z,2.30
2018-03-25T05:49:56.847Z,2.40
2018-03-25T05:52:28.112Z,2.50
2018-03-25T05:54:59.378Z,2.60
2018-03-25T05:57:31.463Z,2.80
2018-03-25T06:00:03.489Z,2.80
2018-03-25T06:02:34.763Z,2.70
2018-03-25T06:05:05.956Z,2.80
2018-03-25T06:07:37.252Z,2.80
2018-03-25T06:10:09.189Z,2.90
2018-03-25T06:12:40.497Z,2.90
2018-03-25T06:15:11.761Z,2.80
2018-03-25T06:17:44.465Z,2.80
2018-03-25T06:20:16.460Z,2.80
2018-03-25T06:22:48.427Z,2.80
2018-03-25T06:25:19.712Z,2.80
2018-03-25T06:27:50.970Z,2.90
2018-03-25T06:30:22.198Z,2.90
2018-03-25T06:33:00.578Z,3.00
2018-03-25T06:35:31.766Z,3.10
2018-03-25T06:38:03.859Z,3.20
2018-03-25T06:40:35.098Z,3.20
2018-03-25T06:43:07.128Z,3.40
2018-03-25T06:45:38.359Z,3.40
2018-03-25T06:48:09.592Z,3.60
2018-03-25T06:50:40.974Z,3.70
2018-03-25T06:53:13.018Z,3.80
2018-03-25T06:55:44.247Z,3.80
2018-03-25T06:58:15.541Z,3.80
2018-03-25T07:00:47.519Z,4.00
2018-03-25T07:03:19.948Z,4.10
2018-03-25T07:05:51.607Z,4.00
2018-03-25T07:08:23.144Z,4.00
2018-03-25T07:10:54.327Z,4.10
2018-03-25T07:13:25.659Z,4.10
2018-03-25T07:15:56.974Z,4.30
2018-03-25T07:18:28.212Z,4.50
2018-03-25T07:20:59.443Z,4.60
2018-03-25T07:23:30.692Z,4.80
2018-03-25T07:26:01.932Z,5.00
2018-03-25T07:28:33.147Z,5.00
2018-03-25T07:31:04.426Z,5.10
2018-03-25T07:33:35.692Z,5.20
2018-03-25T07:36:07.015Z,5.30
2018-03-25T07:38:38.342Z,5.20
2018-03-25T07:41:09.612Z,5.30
2018-03-25T07:43:40.850Z,5.50
2018-03-25T07:46:12.075Z,5.60
2018-03-25T07:48:43.410Z,5.60
2018-03-25T07:51:14.687Z,5.60
2018-03-25T07:53:46.009Z,5.60
2018-03-25T07:56:17.253Z,5.70
2018-03-25T07:58:50.834Z,5.70
2018-03-25T08:01:22.101Z,5.70
2018-03-25T08:03:54.484Z,5.90
2018-03-25T08:06:25.714Z,5.90
2018-03-25T08:08:57.014Z,6.00
2018-03-25T08:11:28.253Z,6.00
2018-03-25T08:13:59.512Z,5.90
2018-03-25T08:16:30.739Z,6.00
2018-03-25T08:19:02.025Z,6.00
2018-03-25T08:21:33.310Z,6.10
2018-03-25T08:24:04.954Z,5.90
2018-03-25T08:26:36.204Z,6.10
2018-03-25T08:29:07.500Z,6.20
2018-03-25T08:31:38.727Z,6.40
2018-03-25T08:34:10.035Z,6.40
2018-03-25T08:36:41.267Z,6.50
2018-03-25T08:39:13.277Z,6.30
2018-03-25T08:41:44.543Z,6.30
2018-03-25T08:44:15.740Z,6.20
2018-03-25T08:46:47.199Z,6.30
2018-03-25T08:49:18.470Z,6.40
2018-03-25T08:51:49.796Z,6.50
2018-03-25T08:54:21.075Z,6.40
2018-03-25T08:56:53.202Z,6.60
2018-03-25T08:59:24.488Z,6.60
2018-03-25T09:01:55.746Z,6.60
2018-03-25T09:04:27.138Z,6.70
2018-03-25T09:06:58.700Z,6.60
2018-03-25T09:09:29.948Z,6.70
2018-03-25T09:12:01.206Z,6.70
2018-03-25T09:14:32.509Z,6.80
2018-03-25T09:17:03.802Z,6.90
2018-03-25T09:19:35.145Z,6.80
2018-03-25T09:22:06.446Z,6.90
2018-03-25T09:24:38.417Z,7.30
2018-03-25T09:27:09.695Z,7.30
2018-03-25T09:29:40.886Z,7.40
2018-03-25T09:32:12.935Z,7.70
2018-03-25T09:34:44.961Z,7.50
2018-03-25T09:37:16.245Z,7.50
2018-03-25T09:39:48.303Z,7.70
2018-03-25T09:42:20.515Z,7.60
2018-03-25T09:44:51.684Z,7.60
2018-03-25T09:47:23.144Z,8.00
2018-03-25T09:49:54.443Z,7.80
2018-03-25T09:52:25.697Z,7.80
2018-03-25T09:54:56.902Z,7.90
2018-03-25T09:57:28.836Z,8.20
2018-03-25T10:00:00.264Z,8.10
2018-03-25T10:02:37.545Z,8.20
2018-03-25T10:05:08.755Z,8.30
2018-03-25T10:07:39.963Z,8.50
2018-03-25T10:10:11.940Z,8.50
2018-03-25T10:12:44.011Z,8.70
2018-03-25T10:15:15.968Z,8.80
2018-03-25T10:17:48.723Z,8.90
2018-03-25T10:20:20.057Z,8.80
2018-03-25T10:22:51.244Z,8.60
2018-03-25T10:25:23.556Z,8.60
2018-03-25T10:27:54.739Z,8.70
2018-03-25T10:30:26.777Z,9.10
2018-03-25T10:32:58.041Z,9.10
2018-03-25T10:35:29.378Z,9.00
2018-03-25T10:38:01.427Z,9.30
2018-03-25T10:40:32.830Z,9.30
2018-03-25T10:43:04.901Z,9.30
2018-03-25T10:45:36.140Z,9.30
2018-03-25T10:48:07.360Z,9.40
2018-03-25T10:50:38.620Z,9.30
2018-03-25T10:53:13.152Z,9.30
2018-03-25T10:55:44.809Z,9.30
2018-03-25T10:58:16.060Z,9.30
2018-03-25T11:00:47.436Z,9.40
2018-03-25T11:03:18.710Z,9.50
2018-03-25T11:05:50.698Z,9.70
2018-03-25T11:08:21.988Z,9.70
2018-03-25T11:10:53.211Z,9.50
2018-03-25T11:13:24.454Z,9.70
2018-03-25T11:15:55.636Z,9.70
2018-03-25T11:18:27.882Z,9.90
2018-03-25T11:20:59.125Z,9.90
2018-03-25T11:23:30.375Z,10.20
2018-03-25T11:26:01.608Z,10.20
2018-03-25T11:28:32.872Z,10.30
2018-03-25T11:31:04.188Z,10.40
2018-03-25T11:33:35.379Z,10.60
2018-03-25T11:36:06.678Z,10.60
2018-03-25T11:38:37.934Z,10.40
2018-03-25T11:41:09.375Z,10.40
2018-03-25T11:43:40.720Z,10.40
2018-03-25T11:46:11.947Z,10.40
2018-03-25T11:48:44.976Z,10.50
2018-03-25T11:51:16.210Z,10.40
2018-03-25T11:53:47.944Z,10.30
2018-03-25T11:56:19.959Z,10.40
2018-03-25T11:58:53.463Z,10.50
2018-03-25T12:01:25.534Z,10.50
2018-03-25T12:03:56.779Z,10.50
2018-03-25T12:06:28.959Z,10.70
2018-03-25T12:09:00.279Z,10.80
2018-03-25T12:11:31.599Z,10.80
2018-03-25T12:14:02.869Z,11.00
2018-03-25T12:16:34.101Z,11.10
2018-03-25T12:19:05.535Z,11.20
2018-03-25T12:21:36.794Z,11.10
2018-03-25T12:24:08.105Z,11.10
2018-03-25T12:26:39.292Z,11.20
2018-03-25T12:29:10.525Z,11.40
2018-03-25T12:31:41.977Z,11.30
2018-03-25T12:34:13.438Z,11.00
2018-03-25T12:36:48.523Z,11.20
2018-03-25T12:39:21.785Z,11.20
2018-03-25T12:41:55.040Z,11.20
2018-03-25T12:44:27.259Z,11.30
2018-03-25T12:46:59.039Z,11.20
2018-03-25T12:49:30.655Z,11.40
2018-03-25T12:52:02.475Z,11.40
2018-03-25T12:54:34.262Z,11.50
2018-03-25T12:57:05.870Z,11.30
2018-03-25T12:59:38.280Z,11.30
2018-03-25T13:02:10.947Z,11.30
2018-03-25T13:04:42.579Z,11.20
2018-03-25T13:07:14.054Z,11.20
2018-03-25T13:09:45.592Z,11.20
2018-03-25T13:12:17.073Z,11.00
2018-03-25T13:14:48.499Z,11.10
2018-03-25T13:17:19.929Z,11.10
2018-03-25T13:19:52.728Z,11.50
2018-03-25T13:22:24.243Z,11.50
2018-03-25T13:24:56.279Z,11.40
2018-03-25T13:27:27.656Z,11.30
2018-03-25T13:29:58.939Z,11.30
2018-03-25T13:32:30.498Z,11.00
2018-03-25T13:35:01.847Z,11.10
2018-03-25T13:37:34.117Z,11.30
2018-03-25T13:40:05.637Z,11.30
2018-03-25T13:42:36.985Z,11.20
2018-03-25T13:45:08.210Z,11.20
2018-03-25T13:47:39.497Z,11.30
2018-03-25T13:50:10.722Z,11.20
2018-03-25T13:52:42.037Z,11.00
2018-03-25T13:55:13.308Z,11.00
2018-03-25T13:57:44.733Z,11.10
2018-03-25T14:00:16.019Z,11.10
2018-03-25T14:02:47.348Z,11.10
2018-03-25T14:05:18.627Z,11.10
2018-03-25T14:07:50.052Z,11.30
2018-03-25T14:10:21.272Z,11.40
2018-03-25T14:12:52.532Z,11.50
2018-03-25T14:15:23.960Z,11.50
2018-03-25T14:17:55.272Z,11.70
2018-03-25T14:20:27.635Z,11.90
2018-03-25T14:22:58.995Z,11.90
2018-03-25T14:25:31.113Z,12.00
2018-03-25T14:28:02.358Z,12.00
2018-03-25T14:30:33.655Z,11.90
2018-03-25T14:33:05.046Z,11.80
2018-03-25T14:35:36.299Z,11.70
2018-03-25T14:38:08.368Z,11.90
2018-03-25T14:40:39.647Z,11.80
2018-03-25T14:43:10.964Z,12.00
2018-03-25T14:45:42.207Z,11.80
2018-03-25T14:48:14.257Z,11.70
2018-03-25T14:50:45.592Z,11.70
2018-03-25T14:53:17.007Z,11.80
2018-03-25T14:55:48.243Z,11.80
2018-03-25T14:58:20.384Z,11.80
2018-03-25T15:00:51.631Z,11.80
2018-03-25T15:03:23.742Z,11.60
2018-03-25T15:05:55.042Z,11.60
2018-03-25T15:08:27.072Z,11.60
2018-03-25T15:10:58.326Z,11.60
2018-03-25T15:13:30.351Z,11.70
2018-03-25T15:16:01.697Z,11.70
2018-03-25T15:18:33.825Z,11.60
2018-03-25T15:21:05.980Z,11.40
2018-03-25T15:23:37.365Z,11.40
2018-03-25T15:26:09.304Z,11.30
2018-03-25T15:28:41.305Z,11.30
2018-03-25T15:31:12.569Z,11.20
2018-03-25T15:33:43.824Z,11.20
2018-03-25T15:36:15.091Z,11.10
2018-03-25T15:38:47.204Z,11.10
2018-03-25T15:41:18.482Z,11.10
2018-03-25T15:43:49.768Z,11.00
2018-03-25T15:46:21.876Z,11.10
2018-03-25T15:48:53.081Z,11.10
2018-03-25T15:51:25.103Z,11.00
2018-03-25T15:53:56.394Z,10.90
2018-03-25T15:56:27.598Z,10.90
2018-03-25T15:58:58.936Z,11.00
2018-03-25T16:01:30.213Z,11.00
2018-03-25T16:04:02.249Z,10.80
2018-03-25T16:06:33.536Z,10.80
2018-03-25T16:09:05.650Z,10.80
2018-03-25T17:33:38.819Z,10.30
2018-03-25T17:36:10.339Z,10.30
2018-03-25T17:38:41.569Z,10.30
2018-03-25T17:41:12.889Z,10.30
2018-03-25T17:43:44.128Z,10.30
2018-03-25T17:46:15.383Z,10.20
2018-03-25T17:48:46.766Z,10.30
2018-03-25T17:51:18.018Z,10.20
2018-03-25T17:53:49.313Z,10.30
2018-03-25T17:56:20.600Z,10.10
2018-03-25T17:58:51.891Z,10.00
2018-03-25T18:01:24.596Z,9.90
2018-03-25T18:03:56.087Z,9.90
2018-03-25T18:06:30.155Z,9.90
2018-03-25T18:09:01.884Z,9.90
2018-03-25T18:11:33.238Z,9.90
2018-03-25T18:14:04.584Z,10.00
2018-03-25T18:16:35.876Z,9.90
2018-03-25T18:19:07.243Z,9.90
2018-03-25T18:21:38.453Z,9.90
2018-03-25T18:24:10.134Z,10.00
2018-03-25T18:26:41.345Z,10.00
2018-03-25T18:29:12.579Z,10.00
2018-03-25T18:31:44.150Z,10.10
2018-03-25T18:34:16.183Z,9.80
2018-03-25T18:36:47.434Z,9.80
2018-03-25T18:39:18.745Z,9.90
2018-03-25T18:41:50.035Z,9.80
2018-03-25T18:44:21.334Z,9.70
2018-03-25T18:46:52.838Z,9.70
2018-03-25T18:49:24.450Z,9.70
2018-03-25T18:51:56.416Z,9.60
2018-03-25T18:54:27.728Z,9.60
2018-03-25T18:56:59.101Z,9.60
2018-03-25T18:59:30.454Z,9.60
2018-03-25T19:02:01.711Z,9.60
2018-03-25T19:04:33.566Z,9.60
2018-03-25T19:07:05.715Z,9.50
2018-03-25T19:09:37.832Z,9.50
2018-03-25T19:12:09.120Z,9.40
2018-03-25T19:14:41.790Z,9.50
2018-03-25T19:17:13.920Z,9.50
2018-03-25T19:19:45.167Z,9.40
2018-03-25T19:22:16.409Z,9.40
2018-03-25T19:24:49.188Z,9.50
2018-03-25T19:27:20.581Z,9.50
2018-03-25T19:29:51.931Z,9.50
2018-03-25T19:32:23.315Z,9.50
2018-03-25T19:34:55.522Z,9.60
2018-03-25T19:37:26.956Z,9.60
2018-03-25T19:39:58.279Z,9.70
2018-03-25T19:42:29.553Z,9.70
2018-03-25T19:45:00.837Z,9.60
2018-03-25T19:47:32.522Z,9.60
2018-03-25T19:50:03.885Z,9.60
2018-03-25T19:52:35.192Z,9.60
2018-03-25T19:55:07.195Z,9.40
2018-03-25T19:57:39.302Z,9.20
2018-03-25T20:00:11.516Z,9.20
2018-03-25T20:02:42.739Z,9.20
2018-03-25T20:05:13.968Z,9.30
2018-03-25T20:07:45.444Z,9.30
2018-03-25T20:10:17.463Z,9.30
2018-03-25T20:12:48.745Z,9.30
2018-03-25T20:15:20.027Z,9.30
2018-03-25T20:17:52.016Z,9.20
2018-03-25T20:20:23.293Z,9.20
2018-03-25T20:22:54.592Z,9.20
2018-03-25T20:25:25.837Z,9.10
2018-03-25T20:27:57.812Z,9.00
2018-03-25T20:30:29.107Z,9.00
2018-03-25T20:33:00.407Z,9.10
2018-03-25T20:35:31.708Z,9.00
2018-03-25T20:38:03.012Z,9.00
2018-03-25T20:40:34.254Z,9.00
2018-03-25T20:43:05.488Z,9.10
2018-03-25T20:45:36.769Z,9.10
2018-03-25T20:48:08.032Z,9.10
2018-03-25T20:50:39.310Z,9.00
2018-03-25T20:53:10.556Z,9.00
2018-03-25T20:55:41.828Z,9.00
2018-03-25T20:58:13.048Z,8.90
2018-03-25T21:00:44.297Z,9.00
2018-03-25T21:03:15.494Z,8.90
2018-03-25T21:05:46.727Z,8.90
2018-03-25T21:08:17.937Z,8.80
2018-03-25T21:10:49.234Z,8.80
2018-03-25T21:13:20.528Z,8.80
2018-03-25T21:15:52.090Z,8.70
2018-03-25T21:18:23.320Z,8.70
2018-03-25T21:20:54.589Z,8.60
2018-03-25T21:23:25.832Z,8.60
2018-03-25T21:25:57.087Z,8.60
2018-03-25T21:28:28.405Z,8.70
2018-03-25T21:30:59.713Z,8.70
2018-03-25T21:33:31.208Z,8.70
2018-03-25T21:36:02.430Z,8.70
2018-03-25T21:38:33.672Z,8.70
2018-03-25T21:41:05.035Z,8.80
2018-03-25T21:43:36.271Z,8.70
2018-03-25T21:46:07.656Z,8.70
2018-03-25T21:48:38.882Z,8.80
2018-03-25T21:51:10.143Z,8.50
2018-03-25T21:53:41.464Z,8.50
2018-03-25T21:56:12.689Z,8.40
2018-03-25T21:58:44.671Z,8.30
2018-03-25T22:01:16.241Z,8.30
2018-03-25T22:03:47.479Z,8.40
2018-03-25T22:06:18.737Z,8.30
2018-03-25T22:08:50.238Z,8.40
2018-03-25T22:11:21.532Z,8.30
2018-03-25T22:13:52.946Z,8.30
2018-03-25T22:16:24.176Z,8.30
2018-03-25T22:18:59.137Z,8.40
2018-03-25T22:21:30.531Z,8.40
2018-03-25T22:24:02.669Z,8.50
2018-03-25T22:26:33.962Z,8.50
2018-03-25T22:29:05.220Z,8.50
2018-03-25T22:31:36.532Z,8.40
2018-03-25T22:34:08.618Z,8.50
2018-03-25T22:36:40.601Z,8.50
2018-03-25T22:39:11.824Z,8.50
2018-03-25T22:41:43.859Z,8.40
2018-03-25T22:44:15.163Z,8.40
2018-03-25T22:46:46.401Z,8.40
2018-03-25T22:49:17.655Z,8.50
2018-03-25T22:51:49.659Z,8.50
2018-03-25T22:54:20.831Z,8.50
2018-03-25T22:56:52.519Z,8.40
2018-03-25T22:59:24.059Z,8.50
2018-03-25T23:01:55.323Z,8.50
2018-03-25T23:04:26.513Z,8.40
2018-03-25T23:06:57.809Z,8.50
2018-03-25T23:09:29.016Z,8.50
2018-03-25T23:12:01.048Z,8.40
2018-03-25T23:14:32.570Z,8.40
2018-03-25T23:17:03.817Z,8.40
2018-03-25T23:19:35.199Z,8.30
2018-03-25T23:22:06.562Z,8.30
2018-03-25T23:24:37.823Z,8.30
2018-03-25T23:27:09.043Z,8.40
2018-03-25T23:29:41.200Z,8.40
2018-03-25T23:32:12.524Z,8.40
2018-03-25T23:34:43.924Z,8.00
2018-03-25T23:37:15.164Z,7.90
2018-03-25T23:39:46.499Z,7.90
2018-03-25T23:42:17.739Z,8.10
2018-03-25T23:44:49.039Z,8.10
2018-03-25T23:47:20.273Z,8.20
2018-03-25T23:49:51.584Z,8.10
2018-03-25T23:52:22.866Z,8.10
2018-03-25T23:54:54.136Z,8.00
2018-03-25T23:57:25.312Z,8.00
2018-03-25T23:59:57.278Z,7.90
